sensor_id;sensor_type;location;lat;lon;timestamp;P1;durP1;ratioP1;P2;durP2;ratioP2
42246;SDS011;27913;42.722;23.268;2023-04-24T00:00:32;5.78;;;2.72;;
42246;SDS011;27913;42.722;23.268;2023-04-24T00:05:32;5.60;;;2.97;;
42246;SDS011;27913;42.722;23.268;2023-04-24T00:07:58;9.63;;;3.17;;
42246;SDS011;27913;42.722;23.268;2023-04-24T00:10:25;6.28;;;3.38;;
42246;SDS011;27913;42.722;23.268;2023-04-24T00:12:50;5.43;;;2.60;;
42246;SDS011;27913;42.722;23.268;2023-04-24T00:15:15;8.85;;;3.00;;
42246;SDS011;27913;42.722;23.268;2023-04-24T00:17:41;4.85;;;2.42;;
42246;SDS011;27913;42.722;23.268;2023-04-24T00:20:06;3.92;;;1.90;;
42246;SDS011;27913;42.722;23.268;2023-04-24T00:22:32;5.35;;;2.70;;
42246;SDS011;27913;42.722;23.268;2023-04-24T00:24:58;7.07;;;2.42;;
42246;SDS011;27913;42.722;23.268;2023-04-24T00:27:24;6.60;;;2.53;;
42246;SDS011;27913;42.722;23.268;2023-04-24T00:29:50;6.13;;;2.40;;
42246;SDS011;27913;42.722;23.268;2023-04-24T00:32:15;5.97;;;2.97;;
42246;SDS011;27913;42.722;23.268;2023-04-24T00:34:41;4.82;;;2.42;;
42246;SDS011;27913;42.722;23.268;2023-04-24T00:37:06;5.10;;;2.80;;
42246;SDS011;27913;42.722;23.268;2023-04-24T00:39:32;4.75;;;2.45;;
42246;SDS011;27913;42.722;23.268;2023-04-24T00:41:57;4.80;;;2.08;;
42246;SDS011;27913;42.722;23.268;2023-04-24T00:44:24;5.35;;;2.90;;
42246;SDS011;27913;42.722;23.268;2023-04-24T00:46:49;6.07;;;3.55;;
42246;SDS011;27913;42.722;23.268;2023-04-24T00:49:19;6.70;;;3.45;;
42246;SDS011;27913;42.722;23.268;2023-04-24T00:51:45;4.53;;;2.75;;
42246;SDS011;27913;42.722;23.268;2023-04-24T00:54:12;5.40;;;3.15;;
42246;SDS011;27913;42.722;23.268;2023-04-24T00:56:38;5.50;;;3.58;;
42246;SDS011;27913;42.722;23.268;2023-04-24T00:59:04;6.43;;;3.03;;
42246;SDS011;27913;42.722;23.268;2023-04-24T01:01:30;8.27;;;3.45;;
42246;SDS011;27913;42.722;23.268;2023-04-24T01:03:56;13.60;;;3.63;;
42246;SDS011;27913;42.722;23.268;2023-04-24T01:06:22;5.35;;;3.03;;
42246;SDS011;27913;42.722;23.268;2023-04-24T01:08:49;6.72;;;3.38;;
42246;SDS011;27913;42.722;23.268;2023-04-24T01:11:14;8.35;;;3.25;;
42246;SDS011;27913;42.722;23.268;2023-04-24T01:13:40;7.80;;;4.25;;
42246;SDS011;27913;42.722;23.268;2023-04-24T01:16:06;8.75;;;4.13;;
42246;SDS011;27913;42.722;23.268;2023-04-24T01:18:31;6.13;;;3.47;;
42246;SDS011;27913;42.722;23.268;2023-04-24T01:20:58;10.13;;;3.80;;
42246;SDS011;27913;42.722;23.268;2023-04-24T01:23:25;6.13;;;3.17;;
42246;SDS011;27913;42.722;23.268;2023-04-24T01:25:51;7.97;;;3.60;;
42246;SDS011;27913;42.722;23.268;2023-04-24T01:28:17;7.05;;;3.42;;
42246;SDS011;27913;42.722;23.268;2023-04-24T01:30:43;6.95;;;4.38;;
42246;SDS011;27913;42.722;23.268;2023-04-24T01:33:09;8.18;;;3.55;;
42246;SDS011;27913;42.722;23.268;2023-04-24T01:35:35;8.85;;;4.25;;
42246;SDS011;27913;42.722;23.268;2023-04-24T01:38:02;5.80;;;3.65;;
42246;SDS011;27913;42.722;23.268;2023-04-24T01:40:28;8.90;;;4.15;;
42246;SDS011;27913;42.722;23.268;2023-04-24T01:42:53;9.07;;;4.03;;
42246;SDS011;27913;42.722;23.268;2023-04-24T01:45:19;6.25;;;3.88;;
42246;SDS011;27913;42.722;23.268;2023-04-24T01:47:44;7.85;;;3.88;;
42246;SDS011;27913;42.722;23.268;2023-04-24T01:50:11;6.65;;;3.65;;
42246;SDS011;27913;42.722;23.268;2023-04-24T01:52:36;7.68;;;3.53;;
42246;SDS011;27913;42.722;23.268;2023-04-24T01:55:02;5.38;;;3.03;;
42246;SDS011;27913;42.722;23.268;2023-04-24T01:57:29;7.28;;;3.70;;
42246;SDS011;27913;42.722;23.268;2023-04-24T01:59:55;6.90;;;3.63;;
42246;SDS011;27913;42.722;23.268;2023-04-24T02:02:21;8.38;;;3.72;;
42246;SDS011;27913;42.722;23.268;2023-04-24T02:04:48;4.63;;;3.03;;
42246;SDS011;27913;42.722;23.268;2023-04-24T02:07:14;6.25;;;3.95;;
42246;SDS011;27913;42.722;23.268;2023-04-24T02:09:40;5.25;;;2.92;;
42246;SDS011;27913;42.722;23.268;2023-04-24T02:12:05;6.80;;;3.92;;
42246;SDS011;27913;42.722;23.268;2023-04-24T02:14:31;7.78;;;3.80;;
42246;SDS011;27913;42.722;23.268;2023-04-24T02:16:56;7.30;;;3.83;;
42246;SDS011;27913;42.722;23.268;2023-04-24T02:19:22;7.30;;;4.15;;
42246;SDS011;27913;42.722;23.268;2023-04-24T02:21:48;9.02;;;4.25;;
42246;SDS011;27913;42.722;23.268;2023-04-24T02:24:13;9.13;;;4.13;;
42246;SDS011;27913;42.722;23.268;2023-04-24T02:26:39;5.30;;;3.30;;
42246;SDS011;27913;42.722;23.268;2023-04-24T02:29:04;7.07;;;4.30;;
42246;SDS011;27913;42.722;23.268;2023-04-24T02:31:30;5.65;;;3.60;;
42246;SDS011;27913;42.722;23.268;2023-04-24T02:33:55;7.65;;;3.45;;
42246;SDS011;27913;42.722;23.268;2023-04-24T02:36:21;10.32;;;3.92;;
42246;SDS011;27913;42.722;23.268;2023-04-24T02:38:46;6.22;;;3.67;;
42246;SDS011;27913;42.722;23.268;2023-04-24T02:41:12;6.78;;;3.00;;
42246;SDS011;27913;42.722;23.268;2023-04-24T02:43:37;6.78;;;3.75;;
42246;SDS011;27913;42.722;23.268;2023-04-24T02:46:02;5.50;;;3.40;;
42246;SDS011;27913;42.722;23.268;2023-04-24T02:48:28;7.10;;;4.00;;
42246;SDS011;27913;42.722;23.268;2023-04-24T02:50:53;5.57;;;3.28;;
42246;SDS011;27913;42.722;23.268;2023-04-24T02:53:19;5.10;;;2.72;;
42246;SDS011;27913;42.722;23.268;2023-04-24T02:55:45;5.03;;;2.88;;
42246;SDS011;27913;42.722;23.268;2023-04-24T02:58:11;6.15;;;2.97;;
42246;SDS011;27913;42.722;23.268;2023-04-24T03:00:37;5.35;;;3.28;;
42246;SDS011;27913;42.722;23.268;2023-04-24T03:03:03;5.93;;;3.28;;
42246;SDS011;27913;42.722;23.268;2023-04-24T03:05:29;7.40;;;2.75;;
42246;SDS011;27913;42.722;23.268;2023-04-24T03:07:55;8.02;;;3.35;;
42246;SDS011;27913;42.722;23.268;2023-04-24T03:10:21;7.55;;;3.00;;
42246;SDS011;27913;42.722;23.268;2023-04-24T03:12:49;6.90;;;3.65;;
42246;SDS011;27913;42.722;23.268;2023-04-24T03:15:16;6.15;;;3.38;;
42246;SDS011;27913;42.722;23.268;2023-04-24T03:17:41;5.72;;;3.10;;
42246;SDS011;27913;42.722;23.268;2023-04-24T03:20:07;3.97;;;2.35;;
42246;SDS011;27913;42.722;23.268;2023-04-24T03:22:33;8.70;;;3.78;;
42246;SDS011;27913;42.722;23.268;2023-04-24T03:24:59;7.78;;;3.15;;
42246;SDS011;27913;42.722;23.268;2023-04-24T03:27:25;6.30;;;2.65;;
42246;SDS011;27913;42.722;23.268;2023-04-24T03:29:51;5.63;;;3.33;;
42246;SDS011;27913;42.722;23.268;2023-04-24T03:32:20;5.32;;;2.97;;
42246;SDS011;27913;42.722;23.268;2023-04-24T03:34:45;6.85;;;2.80;;
42246;SDS011;27913;42.722;23.268;2023-04-24T03:37:11;7.25;;;3.70;;
42246;SDS011;27913;42.722;23.268;2023-04-24T03:39:39;3.97;;;2.70;;
42246;SDS011;27913;42.722;23.268;2023-04-24T03:42:05;5.25;;;3.28;;
42246;SDS011;27913;42.722;23.268;2023-04-24T03:44:30;7.13;;;3.38;;
42246;SDS011;27913;42.722;23.268;2023-04-24T03:46:57;6.15;;;3.30;;
42246;SDS011;27913;42.722;23.268;2023-04-24T03:49:23;6.97;;;4.28;;
42246;SDS011;27913;42.722;23.268;2023-04-24T03:51:48;10.32;;;4.28;;
42246;SDS011;27913;42.722;23.268;2023-04-24T03:54:14;7.28;;;3.88;;
42246;SDS011;27913;42.722;23.268;2023-04-24T03:56:39;6.45;;;3.63;;
42246;SDS011;27913;42.722;23.268;2023-04-24T03:59:05;4.75;;;3.00;;
42246;SDS011;27913;42.722;23.268;2023-04-24T04:01:30;6.47;;;3.15;;
42246;SDS011;27913;42.722;23.268;2023-04-24T04:03:56;5.93;;;3.80;;
42246;SDS011;27913;42.722;23.268;2023-04-24T04:06:21;6.18;;;3.85;;
42246;SDS011;27913;42.722;23.268;2023-04-24T04:08:47;6.90;;;3.45;;
42246;SDS011;27913;42.722;23.268;2023-04-24T04:11:12;12.10;;;4.10;;
42246;SDS011;27913;42.722;23.268;2023-04-24T04:13:38;6.65;;;4.00;;
42246;SDS011;27913;42.722;23.268;2023-04-24T04:16:04;5.30;;;2.83;;
42246;SDS011;27913;42.722;23.268;2023-04-24T04:18:29;6.32;;;3.40;;
42246;SDS011;27913;42.722;23.268;2023-04-24T04:20:55;9.82;;;4.45;;
42246;SDS011;27913;42.722;23.268;2023-04-24T04:23:21;8.07;;;5.03;;
42246;SDS011;27913;42.722;23.268;2023-04-24T04:25:47;10.20;;;6.53;;
42246;SDS011;27913;42.722;23.268;2023-04-24T04:28:13;26.52;;;9.48;;
42246;SDS011;27913;42.722;23.268;2023-04-24T04:30:38;16.33;;;7.63;;
42246;SDS011;27913;42.722;23.268;2023-04-24T04:33:05;10.77;;;5.78;;
42246;SDS011;27913;42.722;23.268;2023-04-24T04:35:30;12.55;;;6.13;;
42246;SDS011;27913;42.722;23.268;2023-04-24T04:37:56;17.52;;;6.93;;
42246;SDS011;27913;42.722;23.268;2023-04-24T04:40:23;8.30;;;5.22;;
42246;SDS011;27913;42.722;23.268;2023-04-24T04:42:49;8.18;;;4.65;;
42246;SDS011;27913;42.722;23.268;2023-04-24T04:45:18;10.25;;;4.57;;
42246;SDS011;27913;42.722;23.268;2023-04-24T04:47:43;12.63;;;8.02;;
42246;SDS011;27913;42.722;23.268;2023-04-24T04:50:09;14.40;;;7.35;;
42246;SDS011;27913;42.722;23.268;2023-04-24T04:52:35;9.77;;;5.35;;
42246;SDS011;27913;42.722;23.268;2023-04-24T04:55:01;13.80;;;6.97;;
42246;SDS011;27913;42.722;23.268;2023-04-24T04:57:26;12.02;;;5.40;;
42246;SDS011;27913;42.722;23.268;2023-04-24T04:59:52;12.57;;;6.60;;
42246;SDS011;27913;42.722;23.268;2023-04-24T05:02:17;8.90;;;5.28;;
42246;SDS011;27913;42.722;23.268;2023-04-24T05:04:43;6.45;;;3.72;;
42246;SDS011;27913;42.722;23.268;2023-04-24T05:07:08;7.25;;;3.88;;
42246;SDS011;27913;42.722;23.268;2023-04-24T05:09:34;9.68;;;4.38;;
42246;SDS011;27913;42.722;23.268;2023-04-24T05:11:59;8.50;;;4.38;;
42246;SDS011;27913;42.722;23.268;2023-04-24T05:14:25;8.48;;;4.25;;
42246;SDS011;27913;42.722;23.268;2023-04-24T05:16:50;6.97;;;4.30;;
42246;SDS011;27913;42.722;23.268;2023-04-24T05:19:16;8.85;;;4.30;;
42246;SDS011;27913;42.722;23.268;2023-04-24T05:21:41;6.97;;;3.97;;
42246;SDS011;27913;42.722;23.268;2023-04-24T05:24:07;8.60;;;4.22;;
42246;SDS011;27913;42.722;23.268;2023-04-24T05:26:32;9.05;;;5.00;;
42246;SDS011;27913;42.722;23.268;2023-04-24T05:28:58;10.85;;;4.68;;
42246;SDS011;27913;42.722;23.268;2023-04-24T05:31:23;9.65;;;5.07;;
42246;SDS011;27913;42.722;23.268;2023-04-24T05:33:49;11.02;;;5.38;;
42246;SDS011;27913;42.722;23.268;2023-04-24T05:36:14;14.30;;;5.40;;
42246;SDS011;27913;42.722;23.268;2023-04-24T05:38:40;9.13;;;5.45;;
42246;SDS011;27913;42.722;23.268;2023-04-24T05:41:05;8.25;;;4.85;;
42246;SDS011;27913;42.722;23.268;2023-04-24T05:43:31;7.68;;;4.55;;
42246;SDS011;27913;42.722;23.268;2023-04-24T05:45:56;11.75;;;4.97;;
42246;SDS011;27913;42.722;23.268;2023-04-24T05:48:22;6.10;;;3.88;;
42246;SDS011;27913;42.722;23.268;2023-04-24T05:50:48;40.55;;;3.95;;
42246;SDS011;27913;42.722;23.268;2023-04-24T05:53:14;4.45;;;2.65;;
42246;SDS011;27913;42.722;23.268;2023-04-24T05:55:40;6.72;;;3.28;;
42246;SDS011;27913;42.722;23.268;2023-04-24T05:58:06;6.43;;;2.65;;
42246;SDS011;27913;42.722;23.268;2023-04-24T06:00:31;8.77;;;3.22;;
42246;SDS011;27913;42.722;23.268;2023-04-24T06:02:57;6.55;;;3.53;;
42246;SDS011;27913;42.722;23.268;2023-04-24T06:05:23;6.35;;;3.30;;
42246;SDS011;27913;42.722;23.268;2023-04-24T06:07:49;5.72;;;2.78;;
42246;SDS011;27913;42.722;23.268;2023-04-24T06:10:14;7.35;;;3.60;;
42246;SDS011;27913;42.722;23.268;2023-04-24T06:12:40;9.90;;;3.22;;
42246;SDS011;27913;42.722;23.268;2023-04-24T06:15:06;5.13;;;2.67;;
42246;SDS011;27913;42.722;23.268;2023-04-24T06:17:32;4.95;;;3.00;;
42246;SDS011;27913;42.722;23.268;2023-04-24T06:19:57;7.20;;;3.42;;
42246;SDS011;27913;42.722;23.268;2023-04-24T06:22:23;6.80;;;3.80;;
42246;SDS011;27913;42.722;23.268;2023-04-24T06:24:48;7.15;;;3.63;;
42246;SDS011;27913;42.722;23.268;2023-04-24T06:27:14;7.60;;;3.88;;
42246;SDS011;27913;42.722;23.268;2023-04-24T06:29:39;6.47;;;4.00;;
42246;SDS011;27913;42.722;23.268;2023-04-24T06:32:05;7.90;;;3.75;;
42246;SDS011;27913;42.722;23.268;2023-04-24T06:34:30;7.32;;;4.28;;
42246;SDS011;27913;42.722;23.268;2023-04-24T06:36:57;6.70;;;3.72;;
42246;SDS011;27913;42.722;23.268;2023-04-24T06:39:23;16.00;;;4.40;;
42246;SDS011;27913;42.722;23.268;2023-04-24T06:41:49;6.60;;;3.67;;
42246;SDS011;27913;42.722;23.268;2023-04-24T06:44:15;6.28;;;3.53;;
42246;SDS011;27913;42.722;23.268;2023-04-24T06:46:41;10.52;;;4.45;;
42246;SDS011;27913;42.722;23.268;2023-04-24T06:49:06;6.50;;;4.00;;
42246;SDS011;27913;42.722;23.268;2023-04-24T06:51:32;7.25;;;3.95;;
42246;SDS011;27913;42.722;23.268;2023-04-24T06:53:58;6.90;;;3.65;;
42246;SDS011;27913;42.722;23.268;2023-04-24T06:56:23;8.55;;;3.92;;
42246;SDS011;27913;42.722;23.268;2023-04-24T06:58:50;10.25;;;3.72;;
42246;SDS011;27913;42.722;23.268;2023-04-24T07:01:16;7.72;;;3.85;;
42246;SDS011;27913;42.722;23.268;2023-04-24T07:03:41;5.55;;;3.33;;
42246;SDS011;27913;42.722;23.268;2023-04-24T07:06:07;4.90;;;2.95;;
42246;SDS011;27913;42.722;23.268;2023-04-24T07:08:33;7.38;;;3.85;;
42246;SDS011;27913;42.722;23.268;2023-04-24T07:10:59;8.10;;;3.92;;
42246;SDS011;27913;42.722;23.268;2023-04-24T07:13:24;7.05;;;3.83;;
42246;SDS011;27913;42.722;23.268;2023-04-24T07:15:54;6.72;;;3.97;;
42246;SDS011;27913;42.722;23.268;2023-04-24T07:18:21;8.85;;;4.05;;
42246;SDS011;27913;42.722;23.268;2023-04-24T07:20:46;7.82;;;4.63;;
42246;SDS011;27913;42.722;23.268;2023-04-24T07:23:12;13.35;;;3.33;;
42246;SDS011;27913;42.722;23.268;2023-04-24T07:25:38;17.95;;;4.10;;
42246;SDS011;27913;42.722;23.268;2023-04-24T07:28:04;6.82;;;3.83;;
42246;SDS011;27913;42.722;23.268;2023-04-24T07:30:30;7.65;;;3.58;;
42246;SDS011;27913;42.722;23.268;2023-04-24T07:32:57;6.32;;;3.13;;
42246;SDS011;27913;42.722;23.268;2023-04-24T07:35:23;8.90;;;3.70;;
42246;SDS011;27913;42.722;23.268;2023-04-24T07:37:50;14.07;;;3.50;;
42246;SDS011;27913;42.722;23.268;2023-04-24T07:40:18;6.53;;;3.85;;
42246;SDS011;27913;42.722;23.268;2023-04-24T07:45:12;8.98;;;3.55;;
42246;SDS011;27913;42.722;23.268;2023-04-24T07:47:37;7.00;;;4.18;;
42246;SDS011;27913;42.722;23.268;2023-04-24T07:50:04;4.80;;;3.03;;
42246;SDS011;27913;42.722;23.268;2023-04-24T07:52:33;6.35;;;3.03;;
42246;SDS011;27913;42.722;23.268;2023-04-24T07:54:59;5.50;;;2.97;;
42246;SDS011;27913;42.722;23.268;2023-04-24T07:57:25;5.93;;;3.17;;
42246;SDS011;27913;42.722;23.268;2023-04-24T07:59:50;5.03;;;3.00;;
42246;SDS011;27913;42.722;23.268;2023-04-24T08:02:16;5.65;;;3.33;;
42246;SDS011;27913;42.722;23.268;2023-04-24T08:04:42;6.80;;;3.72;;
42246;SDS011;27913;42.722;23.268;2023-04-24T08:07:07;6.50;;;3.03;;
42246;SDS011;27913;42.722;23.268;2023-04-24T08:09:33;6.82;;;3.22;;
42246;SDS011;27913;42.722;23.268;2023-04-24T08:11:58;5.35;;;3.00;;
42246;SDS011;27913;42.722;23.268;2023-04-24T08:14:24;6.82;;;3.67;;
42246;SDS011;27913;42.722;23.268;2023-04-24T08:16:50;5.97;;;3.10;;
42246;SDS011;27913;42.722;23.268;2023-04-24T08:19:15;5.38;;;2.75;;
42246;SDS011;27913;42.722;23.268;2023-04-24T08:21:41;10.40;;;5.78;;
42246;SDS011;27913;42.722;23.268;2023-04-24T08:24:06;7.63;;;4.05;;
42246;SDS011;27913;42.722;23.268;2023-04-24T08:26:33;4.50;;;2.78;;
42246;SDS011;27913;42.722;23.268;2023-04-24T08:28:58;5.57;;;2.80;;
42246;SDS011;27913;42.722;23.268;2023-04-24T08:31:24;5.18;;;3.08;;
42246;SDS011;27913;42.722;23.268;2023-04-24T08:33:50;4.00;;;2.50;;
42246;SDS011;27913;42.722;23.268;2023-04-24T08:36:15;5.53;;;2.72;;
42246;SDS011;27913;42.722;23.268;2023-04-24T08:38:41;7.82;;;3.28;;
42246;SDS011;27913;42.722;23.268;2023-04-24T08:41:07;5.53;;;2.65;;
42246;SDS011;27913;42.722;23.268;2023-04-24T08:43:35;9.13;;;3.20;;
42246;SDS011;27913;42.722;23.268;2023-04-24T08:46:03;6.15;;;3.00;;
42246;SDS011;27913;42.722;23.268;2023-04-24T08:48:29;4.78;;;2.65;;
42246;SDS011;27913;42.722;23.268;2023-04-24T08:50:56;8.05;;;3.13;;
42246;SDS011;27913;42.722;23.268;2023-04-24T08:53:22;11.25;;;3.17;;
42246;SDS011;27913;42.722;23.268;2023-04-24T08:55:49;9.60;;;3.42;;
42246;SDS011;27913;42.722;23.268;2023-04-24T08:58:16;6.18;;;3.25;;
42246;SDS011;27913;42.722;23.268;2023-04-24T09:00:43;6.25;;;3.28;;
42246;SDS011;27913;42.722;23.268;2023-04-24T09:03:12;5.25;;;2.85;;
42246;SDS011;27913;42.722;23.268;2023-04-24T09:05:40;6.07;;;3.30;;
42246;SDS011;27913;42.722;23.268;2023-04-24T09:08:11;5.45;;;3.10;;
42246;SDS011;27913;42.722;23.268;2023-04-24T09:10:39;6.40;;;3.10;;
42246;SDS011;27913;42.722;23.268;2023-04-24T09:13:05;8.18;;;3.15;;
42246;SDS011;27913;42.722;23.268;2023-04-24T09:15:31;5.88;;;2.90;;
42246;SDS011;27913;42.722;23.268;2023-04-24T09:17:57;8.98;;;3.08;;
42246;SDS011;27913;42.722;23.268;2023-04-24T09:20:22;5.25;;;2.75;;
42246;SDS011;27913;42.722;23.268;2023-04-24T09:22:48;5.93;;;2.83;;
42246;SDS011;27913;42.722;23.268;2023-04-24T09:25:13;6.80;;;2.97;;
42246;SDS011;27913;42.722;23.268;2023-04-24T09:27:43;6.40;;;2.88;;
42246;SDS011;27913;42.722;23.268;2023-04-24T09:32:35;7.05;;;2.50;;
42246;SDS011;27913;42.722;23.268;2023-04-24T09:35:08;3.80;;;2.22;;
42246;SDS011;27913;42.722;23.268;2023-04-24T09:37:36;5.22;;;2.53;;
42246;SDS011;27913;42.722;23.268;2023-04-24T09:40:10;4.70;;;2.70;;
42246;SDS011;27913;42.722;23.268;2023-04-24T09:42:55;5.63;;;2.85;;
42246;SDS011;27913;42.722;23.268;2023-04-24T09:45:35;5.32;;;2.67;;
42246;SDS011;27913;42.722;23.268;2023-04-24T09:48:02;9.70;;;3.15;;
42246;SDS011;27913;42.722;23.268;2023-04-24T09:50:29;6.15;;;2.83;;
42246;SDS011;27913;42.722;23.268;2023-04-24T09:53:01;5.40;;;3.05;;
42246;SDS011;27913;42.722;23.268;2023-04-24T09:55:28;14.02;;;3.20;;
42246;SDS011;27913;42.722;23.268;2023-04-24T09:57:58;5.00;;;2.67;;
42246;SDS011;27913;42.722;23.268;2023-04-24T10:00:27;3.70;;;2.35;;
42246;SDS011;27913;42.722;23.268;2023-04-24T10:02:58;4.47;;;2.58;;
42246;SDS011;27913;42.722;23.268;2023-04-24T10:05:32;4.28;;;2.80;;
42246;SDS011;27913;42.722;23.268;2023-04-24T10:08:02;6.10;;;2.58;;
42246;SDS011;27913;42.722;23.268;2023-04-24T10:10:33;4.70;;;2.30;;
42246;SDS011;27913;42.722;23.268;2023-04-24T10:13:00;4.63;;;2.30;;
42246;SDS011;27913;42.722;23.268;2023-04-24T10:15:26;4.45;;;2.30;;
42246;SDS011;27913;42.722;23.268;2023-04-24T10:17:52;4.80;;;2.25;;
42246;SDS011;27913;42.722;23.268;2023-04-24T10:20:19;5.57;;;2.53;;
42246;SDS011;27913;42.722;23.268;2023-04-24T10:22:47;4.63;;;2.47;;
42246;SDS011;27913;42.722;23.268;2023-04-24T10:25:21;4.93;;;2.40;;
42246;SDS011;27913;42.722;23.268;2023-04-24T10:27:48;6.00;;;2.60;;
42246;SDS011;27913;42.722;23.268;2023-04-24T10:30:15;5.63;;;2.58;;
42246;SDS011;27913;42.722;23.268;2023-04-24T10:32:43;3.53;;;2.28;;
42246;SDS011;27913;42.722;23.268;2023-04-24T10:35:09;5.47;;;2.67;;
42246;SDS011;27913;42.722;23.268;2023-04-24T10:37:38;13.32;;;2.65;;
42246;SDS011;27913;42.722;23.268;2023-04-24T10:40:06;3.78;;;2.13;;
42246;SDS011;27913;42.722;23.268;2023-04-24T10:42:33;6.07;;;2.80;;
42246;SDS011;27913;42.722;23.268;2023-04-24T10:44:59;4.28;;;2.60;;
42246;SDS011;27913;42.722;23.268;2023-04-24T10:50:07;3.85;;;2.15;;
42246;SDS011;27913;42.722;23.268;2023-04-24T10:52:45;5.30;;;2.22;;
42246;SDS011;27913;42.722;23.268;2023-04-24T10:55:15;5.90;;;2.45;;
42246;SDS011;27913;42.722;23.268;2023-04-24T10:58:00;3.88;;;1.92;;
42246;SDS011;27913;42.722;23.268;2023-04-24T11:00:29;4.05;;;2.15;;
42246;SDS011;27913;42.722;23.268;2023-04-24T11:02:54;5.05;;;2.17;;
42246;SDS011;27913;42.722;23.268;2023-04-24T11:05:21;4.38;;;2.13;;
42246;SDS011;27913;42.722;23.268;2023-04-24T11:10:54;4.63;;;2.30;;
42246;SDS011;27913;42.722;23.268;2023-04-24T11:13:24;4.60;;;1.83;;
42246;SDS011;27913;42.722;23.268;2023-04-24T11:18:51;3.13;;;1.58;;
42246;SDS011;27913;42.722;23.268;2023-04-24T11:23:58;2.38;;;1.52;;
42246;SDS011;27913;42.722;23.268;2023-04-24T11:26:23;3.10;;;1.30;;
42246;SDS011;27913;42.722;23.268;2023-04-24T11:28:55;2.50;;;0.98;;
42246;SDS011;27913;42.722;23.268;2023-04-24T11:31:38;2.00;;;1.23;;
42246;SDS011;27913;42.722;23.268;2023-04-24T11:34:14;2.92;;;1.50;;
42246;SDS011;27913;42.722;23.268;2023-04-24T11:36:44;2.88;;;1.70;;
42246;SDS011;27913;42.722;23.268;2023-04-24T11:39:11;4.80;;;2.28;;
42246;SDS011;27913;42.722;23.268;2023-04-24T11:41:37;3.10;;;1.67;;
42246;SDS011;27913;42.722;23.268;2023-04-24T11:44:04;3.88;;;2.33;;
42246;SDS011;27913;42.722;23.268;2023-04-24T11:46:31;2.50;;;1.52;;
42246;SDS011;27913;42.722;23.268;2023-04-24T11:48:57;2.90;;;1.63;;
42246;SDS011;27913;42.722;23.268;2023-04-24T11:51:24;2.88;;;1.60;;
42246;SDS011;27913;42.722;23.268;2023-04-24T11:56:38;3.33;;;1.35;;
42246;SDS011;27913;42.722;23.268;2023-04-24T11:59:06;3.10;;;1.83;;
42246;SDS011;27913;42.722;23.268;2023-04-24T12:01:42;3.05;;;2.03;;
42246;SDS011;27913;42.722;23.268;2023-04-24T12:04:08;4.35;;;1.80;;
42246;SDS011;27913;42.722;23.268;2023-04-24T12:06:34;2.00;;;1.30;;
42246;SDS011;27913;42.722;23.268;2023-04-24T12:08:59;5.55;;;1.85;;
42246;SDS011;27913;42.722;23.268;2023-04-24T12:11:25;1.80;;;1.20;;
42246;SDS011;27913;42.722;23.268;2023-04-24T12:13:50;3.72;;;1.65;;
42246;SDS011;27913;42.722;23.268;2023-04-24T12:16:16;2.58;;;1.60;;
42246;SDS011;27913;42.722;23.268;2023-04-24T12:18:42;2.53;;;1.50;;
42246;SDS011;27913;42.722;23.268;2023-04-24T12:21:19;3.88;;;1.60;;
42246;SDS011;27913;42.722;23.268;2023-04-24T12:23:46;3.30;;;2.10;;
42246;SDS011;27913;42.722;23.268;2023-04-24T12:26:15;2.70;;;1.70;;
42246;SDS011;27913;42.722;23.268;2023-04-24T12:28:46;6.25;;;1.92;;
42246;SDS011;27913;42.722;23.268;2023-04-24T12:31:14;3.08;;;1.80;;
42246;SDS011;27913;42.722;23.268;2023-04-24T12:33:40;2.55;;;1.77;;
42246;SDS011;27913;42.722;23.268;2023-04-24T12:36:06;11.85;;;1.88;;
42246;SDS011;27913;42.722;23.268;2023-04-24T12:38:31;5.20;;;2.00;;
42246;SDS011;27913;42.722;23.268;2023-04-24T12:41:14;3.22;;;1.45;;
42246;SDS011;27913;42.722;23.268;2023-04-24T12:43:50;3.53;;;1.75;;
42246;SDS011;27913;42.722;23.268;2023-04-24T12:46:17;6.13;;;2.17;;
42246;SDS011;27913;42.722;23.268;2023-04-24T12:48:43;2.33;;;1.52;;
42246;SDS011;27913;42.722;23.268;2023-04-24T12:51:08;3.63;;;1.85;;
42246;SDS011;27913;42.722;23.268;2023-04-24T12:53:33;6.53;;;1.92;;
42246;SDS011;27913;42.722;23.268;2023-04-24T12:55:59;3.75;;;1.40;;
42246;SDS011;27913;42.722;23.268;2023-04-24T12:58:24;1.70;;;1.23;;
42246;SDS011;27913;42.722;23.268;2023-04-24T13:00:50;3.45;;;1.98;;
42246;SDS011;27913;42.722;23.268;2023-04-24T13:03:16;3.65;;;1.90;;
42246;SDS011;27913;42.722;23.268;2023-04-24T13:05:42;3.45;;;1.83;;
42246;SDS011;27913;42.722;23.268;2023-04-24T13:08:08;5.85;;;2.25;;
42246;SDS011;27913;42.722;23.268;2023-04-24T13:10:34;6.45;;;1.77;;
42246;SDS011;27913;42.722;23.268;2023-04-24T13:13:00;4.30;;;1.70;;
42246;SDS011;27913;42.722;23.268;2023-04-24T13:15:25;3.05;;;1.70;;
42246;SDS011;27913;42.722;23.268;2023-04-24T13:17:51;4.03;;;1.73;;
42246;SDS011;27913;42.722;23.268;2023-04-24T13:20:16;6.25;;;2.03;;
42246;SDS011;27913;42.722;23.268;2023-04-24T13:22:42;2.13;;;1.35;;
42246;SDS011;27913;42.722;23.268;2023-04-24T13:25:08;2.22;;;1.27;;
42246;SDS011;27913;42.722;23.268;2023-04-24T13:27:34;3.55;;;1.50;;
42246;SDS011;27913;42.722;23.268;2023-04-24T13:29:59;4.30;;;1.60;;
42246;SDS011;27913;42.722;23.268;2023-04-24T13:32:25;3.10;;;1.55;;
42246;SDS011;27913;42.722;23.268;2023-04-24T13:35:02;3.33;;;1.58;;
42246;SDS011;27913;42.722;23.268;2023-04-24T13:37:27;4.90;;;1.35;;
42246;SDS011;27913;42.722;23.268;2023-04-24T13:39:53;2.42;;;1.30;;
42246;SDS011;27913;42.722;23.268;2023-04-24T13:42:18;2.50;;;1.27;;
42246;SDS011;27913;42.722;23.268;2023-04-24T13:44:45;4.25;;;1.63;;
42246;SDS011;27913;42.722;23.268;2023-04-24T13:47:10;5.05;;;1.55;;
42246;SDS011;27913;42.722;23.268;2023-04-24T13:49:35;2.90;;;1.40;;
42246;SDS011;27913;42.722;23.268;2023-04-24T13:52:01;2.35;;;1.27;;
42246;SDS011;27913;42.722;23.268;2023-04-24T13:54:27;4.97;;;1.55;;
42246;SDS011;27913;42.722;23.268;2023-04-24T13:56:52;3.60;;;1.67;;
42246;SDS011;27913;42.722;23.268;2023-04-24T13:59:19;3.78;;;1.63;;
42246;SDS011;27913;42.722;23.268;2023-04-24T14:01:46;3.40;;;1.60;;
42246;SDS011;27913;42.722;23.268;2023-04-24T14:10:25;2.47;;;1.30;;
42246;SDS011;27913;42.722;23.268;2023-04-24T14:12:52;4.32;;;1.20;;
42246;SDS011;27913;42.722;23.268;2023-04-24T14:15:18;3.25;;;1.58;;
42246;SDS011;27913;42.722;23.268;2023-04-24T14:17:44;3.92;;;1.45;;
42246;SDS011;27913;42.722;23.268;2023-04-24T14:20:10;3.13;;;1.50;;
42246;SDS011;27913;42.722;23.268;2023-04-24T14:22:35;2.83;;;1.58;;
42246;SDS011;27913;42.722;23.268;2023-04-24T14:25:01;2.60;;;1.40;;
42246;SDS011;27913;42.722;23.268;2023-04-24T14:27:26;4.78;;;1.40;;
42246;SDS011;27913;42.722;23.268;2023-04-24T14:29:52;4.85;;;1.67;;
42246;SDS011;27913;42.722;23.268;2023-04-24T14:32:18;2.80;;;1.45;;
42246;SDS011;27913;42.722;23.268;2023-04-24T14:34:43;2.58;;;1.67;;
42246;SDS011;27913;42.722;23.268;2023-04-24T14:37:09;3.03;;;1.55;;
42246;SDS011;27913;42.722;23.268;2023-04-24T14:39:34;3.92;;;1.55;;
42246;SDS011;27913;42.722;23.268;2023-04-24T14:42:00;8.13;;;1.80;;
42246;SDS011;27913;42.722;23.268;2023-04-24T14:44:28;4.85;;;2.10;;
42246;SDS011;27913;42.722;23.268;2023-04-24T14:46:54;5.65;;;2.10;;
42246;SDS011;27913;42.722;23.268;2023-04-24T14:49:20;3.08;;;1.45;;
42246;SDS011;27913;42.722;23.268;2023-04-24T14:51:45;3.80;;;1.95;;
42246;SDS011;27913;42.722;23.268;2023-04-24T14:54:11;3.53;;;2.00;;
42246;SDS011;27913;42.722;23.268;2023-04-24T14:56:36;3.22;;;1.63;;